createdAt,value
2022-09-16T00:01:12.527Z,99689.91
2022-09-16T00:06:21.509Z,99690.59
2022-09-16T00:11:25.715Z,99688.63
2022-09-16T00:16:29.817Z,99687.50
2022-09-16T00:21:34.043Z,99684.69
2022-09-16T00:26:38.617Z,99686.47
2022-09-16T00:31:41.412Z,99693.13
2022-09-16T00:36:45.600Z,99679.59
2022-09-16T00:41:48.667Z,99688.38
2022-09-16T00:46:52.019Z,99679.44
2022-09-16T00:52:01.858Z,99681.22
2022-09-16T00:57:06.556Z,99679.84
2022-09-16T01:02:12.886Z,99676.50
2022-09-16T01:07:19.490Z,99669.72
2022-09-16T01:12:22.301Z,99682.00
2022-09-16T01:17:29.139Z,99676.22
2022-09-16T01:22:47.146Z,99674.94
2022-09-16T01:28:14.697Z,99680.88
2022-09-16T01:33:29.215Z,99681.44
2022-09-16T01:38:51.816Z,99673.94
2022-09-16T01:44:01.903Z,99675.25
2022-09-16T01:49:17.941Z,99664.75
2022-09-16T01:54:28.430Z,99677.91
2022-09-16T01:59:39.467Z,99681.06
2022-09-16T02:04:48.542Z,99676.69
2022-09-16T02:09:56.981Z,99672.31
2022-09-16T02:15:06.532Z,99668.22
2022-09-16T02:20:14.417Z,99675.56
2022-09-16T02:25:20.451Z,99678.94
2022-09-16T02:30:24.229Z,99673.81
2022-09-16T02:35:31.570Z,99685.13
2022-09-16T02:40:38.912Z,99671.88
2022-09-16T02:45:49.721Z,99675.94
2022-09-16T02:51:03.055Z,99682.78
2022-09-16T02:56:14.542Z,99680.38
2022-09-16T03:01:19.024Z,99677.53
2022-09-16T03:06:25.065Z,99684.63
2022-09-16T03:11:42.412Z,99681.78
2022-09-16T03:16:55.206Z,99670.34
2022-09-16T03:22:03.695Z,99663.13
2022-09-16T03:27:11.366Z,99652.94
2022-09-16T03:32:22.211Z,99665.38
2022-09-16T03:37:32.088Z,99665.50
2022-09-16T03:42:35.117Z,99663.53
2022-09-16T03:47:37.961Z,99658.44
2022-09-16T03:52:42.103Z,99661.97
2022-09-16T03:57:44.941Z,99663.38
2022-09-16T04:02:47.813Z,99655.91
2022-09-16T04:07:52.040Z,99666.63
2022-09-16T04:12:58.476Z,99656.91
2022-09-16T04:18:01.430Z,99647.00
2022-09-16T04:23:05.708Z,99653.63
2022-09-16T04:28:08.895Z,99639.78
2022-09-16T04:33:11.645Z,99638.25
2022-09-16T04:38:15.587Z,99640.09
2022-09-16T04:43:18.322Z,99644.75
2022-09-16T04:48:20.859Z,99626.69
2022-09-16T04:53:25.026Z,99638.94
2022-09-16T04:58:30.045Z,99632.31
2022-09-16T05:03:33.502Z,99635.94
2022-09-16T05:08:37.727Z,99638.09
2022-09-16T05:13:41.072Z,99638.94
2022-09-16T05:18:45.276Z,99641.34
2022-09-16T05:23:49.643Z,99643.47
2022-09-16T05:28:52.752Z,99653.22
2022-09-16T05:33:56.889Z,99665.53
2022-09-16T05:44:24.045Z,99653.38
2022-09-16T05:49:26.875Z,99651.38
2022-09-16T05:54:31.492Z,99659.84
2022-09-16T05:59:34.199Z,99659.31
2022-09-16T06:04:37.033Z,99660.56
2022-09-16T06:09:41.697Z,99667.22
2022-09-16T06:14:44.376Z,99679.50
2022-09-16T06:19:46.905Z,99683.63
2022-09-16T06:24:52.324Z,99674.66
2022-09-16T06:29:55.044Z,99664.13
2022-09-16T06:34:57.641Z,99670.31
2022-09-16T06:40:01.776Z,99671.28
2022-09-16T06:45:05.195Z,99671.16
2022-09-16T06:50:08.339Z,99659.31
2022-09-16T06:55:12.674Z,99651.94
2022-09-16T07:00:15.951Z,99662.13
2022-09-16T07:05:18.772Z,99660.44
2022-09-16T07:10:24.114Z,99671.16
2022-09-16T07:15:26.841Z,99663.50
2022-09-16T07:20:29.800Z,99673.38
2022-09-16T07:25:35.969Z,99672.88
2022-09-16T07:30:38.830Z,99672.53
2022-09-16T07:35:41.738Z,99677.81
2022-09-16T07:40:45.761Z,99679.03
2022-09-16T07:45:48.551Z,99680.19
2022-09-16T07:50:56.147Z,99688.84
2022-09-16T07:56:05.265Z,99691.44
2022-09-16T08:01:08.826Z,99690.38
2022-09-16T08:06:13.802Z,99690.13
2022-09-16T08:11:17.956Z,99693.56
2022-09-16T08:16:22.671Z,99699.38
2022-09-16T08:21:27.293Z,99689.31
2022-09-16T08:26:31.534Z,99693.56
2022-09-16T08:31:34.418Z,99688.38
2022-09-16T08:36:37.186Z,99691.53
2022-09-16T08:41:57.600Z,99670.91
2022-09-16T08:47:03.203Z,99684.59
2022-09-16T08:52:13.217Z,99688.78
2022-09-16T08:57:21.632Z,99688.81
2022-09-16T09:02:38.576Z,99706.13
2022-09-16T09:07:54.529Z,99681.56
2022-09-16T09:13:10.195Z,99693.13
2022-09-16T09:18:31.237Z,99697.84
2022-09-16T09:23:54.994Z,99678.94
2022-09-16T09:29:22.104Z,99687.63
2022-09-16T09:34:41.699Z,99679.44
2022-09-16T09:39:57.420Z,99678.25
2022-09-16T09:45:05.719Z,99674.28
2022-09-16T09:50:18.573Z,99680.28
2022-09-16T09:55:24.753Z,99670.50
2022-09-16T10:00:29.095Z,99655.97
2022-09-16T10:05:32.766Z,99649.50
2022-09-16T10:10:39.894Z,99658.44
2022-09-16T10:15:44.651Z,99662.28
2022-09-16T10:20:59.075Z,99658.69
2022-09-16T10:26:08.430Z,99645.75
2022-09-16T10:31:12.882Z,99637.50
2022-09-16T10:36:20.789Z,99637.63
2022-09-16T10:41:25.896Z,99641.44
2022-09-16T10:46:30.974Z,99623.94
2022-09-16T10:51:34.681Z,99629.97
2022-09-16T10:56:49.244Z,99619.13
2022-09-16T11:02:05.833Z,99617.00
2022-09-16T11:07:24.720Z,99616.91
2022-09-16T11:12:49.764Z,99612.03
2022-09-16T11:18:08.781Z,99594.47
2022-09-16T11:23:26.717Z,99601.31
2022-09-16T11:29:10.190Z,99609.63
2022-09-16T11:34:28.887Z,99591.22
2022-09-16T11:39:47.687Z,99602.47
2022-09-16T11:44:56.822Z,99603.47
2022-09-16T11:50:13.324Z,99607.72
2022-09-16T11:55:35.393Z,99608.47
2022-09-16T12:00:41.221Z,99614.13
2022-09-16T12:05:53.454Z,99615.59
2022-09-16T12:11:01.331Z,99639.44
2022-09-16T12:16:07.459Z,99660.53
2022-09-16T12:21:16.525Z,99658.28
2022-09-16T12:26:22.635Z,99645.72
2022-09-16T12:31:32.442Z,99652.38
2022-09-16T12:36:40.281Z,99645.75
2022-09-16T12:42:02.914Z,99630.22
2022-09-16T12:47:51.221Z,99623.72
2022-09-16T12:53:15.354Z,99620.53
2022-09-16T12:59:00.565Z,99617.13
2022-09-16T13:04:15.173Z,99601.94
2022-09-16T13:09:24.997Z,99631.63
2022-09-16T13:14:32.120Z,99584.00
2022-09-16T13:19:46.383Z,99581.94
2022-09-16T13:24:55.927Z,99586.72
2022-09-16T13:30:31.272Z,99585.78
2022-09-16T13:35:40.906Z,99577.47
2022-09-16T13:40:56.841Z,99573.19
2022-09-16T13:46:08.622Z,99540.28
2022-09-16T13:51:18.340Z,99559.59
2022-09-16T13:56:48.873Z,99553.81
2022-09-16T14:02:10.464Z,99548.84
2022-09-16T14:07:27.323Z,99546.41
2022-09-16T14:12:42.751Z,99540.00
2022-09-16T14:17:51.397Z,99530.09
2022-09-16T14:23:05.874Z,99534.25
2022-09-16T14:28:18.621Z,99524.69
2022-09-16T14:33:25.701Z,99540.22
2022-09-16T14:38:45.640Z,99531.44
2022-09-16T14:43:51.420Z,99541.50
2022-09-16T14:48:54.380Z,99548.19
2022-09-16T14:54:12.230Z,99566.72
2022-09-16T14:59:17.831Z,99597.41
2022-09-16T15:04:26.324Z,99583.66
2022-09-16T15:09:38.609Z,99581.94
2022-09-16T15:14:42.779Z,99569.31
2022-09-16T15:19:52.296Z,99576.38
2022-09-16T15:24:58.459Z,99581.59
2022-09-16T15:30:05.637Z,99580.56
2022-09-16T15:35:23.489Z,99577.03
2022-09-16T15:40:35.680Z,99574.53
2022-09-16T15:45:40.468Z,99572.97
2022-09-16T15:50:47.688Z,99564.53
2022-09-16T15:56:01.366Z,99558.53
2022-09-16T16:01:11.540Z,99557.25
2022-09-16T16:06:14.694Z,99568.84
2022-09-16T16:11:19.104Z,99564.72
2022-09-16T16:16:23.454Z,99567.44
2022-09-16T16:21:26.252Z,99558.28
2022-09-16T16:26:29.368Z,99558.47
2022-09-16T16:31:34.959Z,99546.38
2022-09-16T16:36:37.909Z,99542.38
2022-09-16T16:41:40.745Z,99540.81
2022-09-16T16:46:44.995Z,99546.69
2022-09-16T16:51:49.893Z,99547.28
2022-09-16T16:56:52.847Z,99561.78
2022-09-16T17:01:58.317Z,99587.88
2022-09-16T17:07:24.763Z,99604.28
2022-09-16T17:12:24.836Z,99595.47
2022-09-16T17:17:31.674Z,99592.69
2022-09-16T17:22:34.826Z,99597.75
2022-09-16T17:27:37.570Z,99597.34
2022-09-16T17:32:41.653Z,99606.84
2022-09-16T17:37:44.497Z,99601.81
2022-09-16T17:42:51.568Z,99602.38
2022-09-16T17:47:57.719Z,99590.63
2022-09-16T17:53:00.577Z,99591.31
2022-09-16T17:58:03.583Z,99600.09
2022-09-16T18:03:08.126Z,99600.25
2022-09-16T18:08:11.048Z,99599.97
2022-09-16T18:13:13.871Z,99601.16
2022-09-16T18:18:19.183Z,99605.78
2022-09-16T18:23:22.236Z,99599.72
2022-09-16T18:28:25.260Z,99605.09
2022-09-16T18:33:29.671Z,99615.19
2022-09-16T18:38:33.945Z,99607.53
2022-09-16T18:43:39.461Z,99624.09
2022-09-16T18:48:45.382Z,99610.41
2022-09-16T18:53:49.694Z,99613.25
2022-09-16T18:59:17.107Z,99602.75
2022-09-16T19:04:19.224Z,99606.53
2022-09-16T19:09:23.971Z,99614.16
2022-09-16T19:14:27.429Z,99618.44
2022-09-16T19:19:31.821Z,99625.41
2022-09-16T19:24:35.097Z,99633.00
2022-09-16T19:29:37.901Z,99633.31
2022-09-16T19:34:42.161Z,99630.31
2022-09-16T19:39:44.936Z,99638.63
2022-09-16T19:44:47.547Z,99649.16
2022-09-16T19:49:51.773Z,99641.38
2022-09-16T19:54:54.586Z,99641.78
2022-09-16T19:59:57.194Z,99664.91
2022-09-16T20:05:03.026Z,99659.81
2022-09-16T20:10:09.075Z,99663.22
2022-09-16T20:15:11.994Z,99664.34
2022-09-16T20:20:16.413Z,99657.09
2022-09-16T20:25:23.537Z,99672.75
2022-09-16T20:30:26.572Z,99676.31
2022-09-16T20:35:30.515Z,99672.50
2022-09-16T20:40:33.463Z,99679.47
2022-09-16T20:45:37.158Z,99673.38
2022-09-16T20:50:41.319Z,99680.13
2022-09-16T20:55:44.046Z,99686.13
2022-09-16T21:00:48.007Z,99682.00
2022-09-16T21:05:52.128Z,99681.91
2022-09-16T21:11:00.349Z,99679.91
2022-09-16T21:16:03.760Z,99681.47
2022-09-16T21:21:09.746Z,99682.22
2022-09-16T21:26:14.179Z,99694.34
2022-09-16T21:31:18.420Z,99693.81
2022-09-16T21:36:24.369Z,99701.00
2022-09-16T21:41:27.627Z,99700.34
2022-09-16T21:46:32.767Z,99707.13
2022-09-16T21:51:38.759Z,99698.13
2022-09-16T21:56:42.404Z,99701.13
2022-09-16T22:01:45.216Z,99707.44
2022-09-16T22:06:49.808Z,99702.13
2022-09-16T22:11:52.607Z,99703.03
2022-09-16T22:16:55.175Z,99697.69
2022-09-16T22:21:59.330Z,99700.97
2022-09-16T22:27:02.100Z,99691.06
2022-09-16T22:32:04.705Z,99697.59
2022-09-16T22:37:09.262Z,99687.81
2022-09-16T22:42:12.029Z,99689.84
2022-09-16T22:47:14.603Z,99692.91
2022-09-16T22:52:18.707Z,99706.09
2022-09-16T22:57:21.477Z,99710.25
2022-09-16T23:02:24.150Z,99681.91
2022-09-16T23:07:29.793Z,99710.69
2022-09-16T23:12:32.629Z,99708.38
2022-09-16T23:17:35.408Z,99697.06
2022-09-16T23:22:40.010Z,99709.59
2022-09-16T23:27:42.858Z,99713.06
2022-09-16T23:32:45.969Z,99711.13
2022-09-16T23:37:50.080Z,99715.22
2022-09-16T23:42:52.846Z,99717.09
2022-09-16T23:47:55.437Z,99716.00
2022-09-16T23:52:59.932Z,99709.16
2022-09-16T23:58:02.748Z,99711.84
